Main page
METAR-TAF:

METAR-TAF

Airports :

Faribault Municipal Airport

Faribault, Minnesota, United States

latitude: 44-20N, longitude: 093-19W, elevation: 1056 ft

Current weather observation

The report was made 19 minutes ago, at 21:36 UTC
Wind 7 mph from the South/Southwest
Temperature 9°F
Humidity 61%
Pressure 30.67 in. Hg
Visibility: 10 miles

METAR: KFBL 202136Z 20006KT 10SM M13/M19 A3067 RMK AO2

Time: 15:55 (21:55 UTC)


TAF: missing

Weather observations and forecasts of more than 4000 airports (METAR and TAF reports).

The available stations are represented by yellow and red dots on the map.

Hover mouse over dot to see the name of the station.

Then click to see weather observations and forecasts.

To change the map : click on the green buttons with a black cross to zoom in, on the green button with a dash to zoom out, or on the green arrows for adjacent maps.


METAR-TAF: